sensor_id;sensor_type;location;lat;lon;timestamp;pressure;altitude;pressure_sealevel;temperature;humidity
30636;BME280;17400;52.392;9.750;2023-04-21T00:01:37;101159.03;;;10.43;100.00
30636;BME280;17400;52.392;9.750;2023-04-21T00:04:05;101157.34;;;10.42;100.00
30636;BME280;17400;52.392;9.750;2023-04-21T00:06:36;101150.63;;;10.38;100.00
30636;BME280;17400;52.392;9.750;2023-04-21T00:09:08;101152.53;;;10.38;100.00
30636;BME280;17400;52.392;9.750;2023-04-21T00:11:36;101148.94;;;10.37;100.00
30636;BME280;17400;52.392;9.750;2023-04-21T00:14:04;101147.94;;;10.38;100.00
30636;BME280;17400;52.392;9.750;2023-04-21T00:16:32;101152.88;;;10.34;100.00
30636;BME280;17400;52.392;9.750;2023-04-21T00:19:00;101142.91;;;10.35;100.00
30636;BME280;17400;52.392;9.750;2023-04-21T00:21:32;101152.00;;;10.34;100.00
30636;BME280;17400;52.392;9.750;2023-04-21T00:23:59;101139.34;;;10.34;100.00
30636;BME280;17400;52.392;9.750;2023-04-21T00:26:28;101140.19;;;10.35;100.00
30636;BME280;17400;52.392;9.750;2023-04-21T00:28:56;101141.69;;;10.38;100.00
30636;BME280;17400;52.392;9.750;2023-04-21T00:31:24;101142.31;;;10.40;100.00
30636;BME280;17400;52.392;9.750;2023-04-21T00:33:51;101139.63;;;10.40;100.00
30636;BME280;17400;52.392;9.750;2023-04-21T00:36:20;101130.88;;;10.38;100.00
30636;BME280;17400;52.392;9.750;2023-04-21T00:38:47;101135.59;;;10.36;100.00
30636;BME280;17400;52.392;9.750;2023-04-21T00:41:15;101121.41;;;10.33;100.00
30636;BME280;17400;52.392;9.750;2023-04-21T00:44:04;101127.66;;;10.34;100.00
30636;BME280;17400;52.392;9.750;2023-04-21T00:46:33;101128.03;;;10.31;100.00
30636;BME280;17400;52.392;9.750;2023-04-21T00:49:04;101125.31;;;10.31;100.00
30636;BME280;17400;52.392;9.750;2023-04-21T00:51:33;101119.06;;;10.30;100.00
30636;BME280;17400;52.392;9.750;2023-04-21T00:54:03;101115.72;;;10.28;100.00
30636;BME280;17400;52.392;9.750;2023-04-21T00:56:32;101113.19;;;10.27;100.00
30636;BME280;17400;52.392;9.750;2023-04-21T00:59:01;101112.16;;;10.28;100.00
30636;BME280;17400;52.392;9.750;2023-04-21T01:01:31;101107.41;;;10.30;100.00
30636;BME280;17400;52.392;9.750;2023-04-21T01:04:00;101111.78;;;10.31;100.00
30636;BME280;17400;52.392;9.750;2023-04-21T01:06:31;101105.53;;;10.30;100.00
30636;BME280;17400;52.392;9.750;2023-04-21T01:09:00;101104.69;;;10.30;100.00
30636;BME280;17400;52.392;9.750;2023-04-21T01:11:30;101098.47;;;10.29;100.00
30636;BME280;17400;52.392;9.750;2023-04-21T01:13:58;101102.19;;;10.28;100.00
30636;BME280;17400;52.392;9.750;2023-04-21T01:16:25;101094.88;;;10.29;100.00
30636;BME280;17400;52.392;9.750;2023-04-21T01:18:54;101098.47;;;10.29;100.00
30636;BME280;17400;52.392;9.750;2023-04-21T01:21:22;101094.25;;;10.27;100.00
30636;BME280;17400;52.392;9.750;2023-04-21T01:23:52;101104.22;;;10.26;100.00
30636;BME280;17400;52.392;9.750;2023-04-21T01:26:20;101100.94;;;10.16;100.00
30636;BME280;17400;52.392;9.750;2023-04-21T01:28:49;101099.72;;;10.18;100.00
30636;BME280;17400;52.392;9.750;2023-04-21T01:31:17;101096.69;;;10.22;100.00
30636;BME280;17400;52.392;9.750;2023-04-21T01:33:46;101097.31;;;10.24;100.00
30636;BME280;17400;52.392;9.750;2023-04-21T01:36:14;101092.94;;;10.23;100.00
30636;BME280;17400;52.392;9.750;2023-04-21T01:38:42;101097.31;;;10.24;100.00
30636;BME280;17400;52.392;9.750;2023-04-21T01:41:13;101093.78;;;10.23;100.00
30636;BME280;17400;52.392;9.750;2023-04-21T01:43:41;101091.50;;;10.12;100.00
30636;BME280;17400;52.392;9.750;2023-04-21T01:46:09;101095.19;;;10.19;100.00
30636;BME280;17400;52.392;9.750;2023-04-21T01:48:36;101092.28;;;10.21;100.00
30636;BME280;17400;52.392;9.750;2023-04-21T01:51:04;101087.25;;;10.17;100.00
30636;BME280;17400;52.392;9.750;2023-04-21T01:53:32;101084.53;;;10.17;100.00
30636;BME280;17400;52.392;9.750;2023-04-21T01:56:00;101086.09;;;10.12;100.00
30636;BME280;17400;52.392;9.750;2023-04-21T01:58:29;101079.97;;;10.03;100.00
30636;BME280;17400;52.392;9.750;2023-04-21T02:00:56;101091.06;;;10.08;100.00
30636;BME280;17400;52.392;9.750;2023-04-21T02:03:24;101084.59;;;10.09;100.00
30636;BME280;17400;52.392;9.750;2023-04-21T02:05:52;101091.50;;;10.12;100.00
30636;BME280;17400;52.392;9.750;2023-04-21T02:08:20;101088.06;;;10.03;100.00
30636;BME280;17400;52.392;9.750;2023-04-21T02:10:47;101094.22;;;9.97;100.00
30636;BME280;17400;52.392;9.750;2023-04-21T02:13:15;101093.19;;;9.98;100.00
30636;BME280;17400;52.392;9.750;2023-04-21T02:15:44;101097.09;;;9.95;100.00
30636;BME280;17400;52.392;9.750;2023-04-21T02:18:12;101097.00;;;10.04;100.00
30636;BME280;17400;52.392;9.750;2023-04-21T02:20:40;101089.56;;;10.06;100.00
30636;BME280;17400;52.392;9.750;2023-04-21T02:23:08;101095.44;;;10.09;100.00
30636;BME280;17400;52.392;9.750;2023-04-21T02:25:35;101096.94;;;10.12;100.00
30636;BME280;17400;52.392;9.750;2023-04-21T02:28:03;101088.34;;;10.08;100.00
30636;BME280;17400;52.392;9.750;2023-04-21T02:30:32;101095.81;;;10.06;100.00
30636;BME280;17400;52.392;9.750;2023-04-21T02:33:01;101092.38;;;10.12;100.00
30636;BME280;17400;52.392;9.750;2023-04-21T02:35:30;101088.59;;;9.98;100.00
30636;BME280;17400;52.392;9.750;2023-04-21T02:37:59;101094.22;;;9.97;100.00
30636;BME280;17400;52.392;9.750;2023-04-21T02:40:32;101089.75;;;10.04;100.00
30636;BME280;17400;52.392;9.750;2023-04-21T02:43:00;101092.50;;;9.96;100.00
30636;BME280;17400;52.392;9.750;2023-04-21T02:45:28;101094.22;;;9.97;100.00
30636;BME280;17400;52.392;9.750;2023-04-21T02:47:55;101095.88;;;9.98;100.00
30636;BME280;17400;52.392;9.750;2023-04-21T02:50:26;101094.88;;;9.99;100.00
30636;BME280;17400;52.392;9.750;2023-04-21T02:52:53;101095.63;;;10.08;100.00
30636;BME280;17400;52.392;9.750;2023-04-21T02:55:21;101098.13;;;10.09;100.00
30636;BME280;17400;52.392;9.750;2023-04-21T02:57:50;101090.69;;;10.11;100.00
30636;BME280;17400;52.392;9.750;2023-04-21T03:00:18;101089.84;;;10.11;100.00
30636;BME280;17400;52.392;9.750;2023-04-21T03:02:46;101096.09;;;10.11;100.00
30636;BME280;17400;52.392;9.750;2023-04-21T03:05:13;101099.81;;;10.10;100.00
30636;BME280;17400;52.392;9.750;2023-04-21T03:07:43;101093.38;;;10.11;100.00
30636;BME280;17400;52.392;9.750;2023-04-21T03:10:11;101096.94;;;10.12;100.00
30636;BME280;17400;52.392;9.750;2023-04-21T03:12:39;101101.50;;;10.11;100.00
30636;BME280;17400;52.392;9.750;2023-04-21T03:15:06;101102.53;;;10.10;100.00
30636;BME280;17400;52.392;9.750;2023-04-21T03:17:34;101106.91;;;10.11;100.00
30636;BME280;17400;52.392;9.750;2023-04-21T03:20:03;101102.34;;;10.12;100.00
30636;BME280;17400;52.392;9.750;2023-04-21T03:22:33;101106.91;;;10.11;100.00
30636;BME280;17400;52.392;9.750;2023-04-21T03:25:02;101096.09;;;10.11;100.00
30636;BME280;17400;52.392;9.750;2023-04-21T03:27:31;101106.09;;;10.11;100.00
30636;BME280;17400;52.392;9.750;2023-04-21T03:29:59;101103.19;;;10.12;100.00
30636;BME280;17400;52.392;9.750;2023-04-21T03:32:27;101103.38;;;10.11;100.00
30636;BME280;17400;52.392;9.750;2023-04-21T03:34:54;101102.72;;;10.09;100.00
30636;BME280;17400;52.392;9.750;2023-04-21T03:37:22;101115.56;;;10.07;100.00
30636;BME280;17400;52.392;9.750;2023-04-21T03:39:49;101110.53;;;10.04;100.00
30636;BME280;17400;52.392;9.750;2023-04-21T03:42:19;101112.88;;;10.07;100.00
30636;BME280;17400;52.392;9.750;2023-04-21T03:44:46;101114.34;;;10.09;100.00
30636;BME280;17400;52.392;9.750;2023-04-21T03:47:15;101117.94;;;10.10;100.00
30636;BME280;17400;52.392;9.750;2023-04-21T03:49:42;101107.59;;;10.13;100.00
30636;BME280;17400;52.392;9.750;2023-04-21T03:52:10;101115.31;;;10.16;100.00
30636;BME280;17400;52.392;9.750;2023-04-21T03:54:38;101109.06;;;10.16;100.00
30636;BME280;17400;52.392;9.750;2023-04-21T03:57:05;101113.16;;;10.12;100.00
30636;BME280;17400;52.392;9.750;2023-04-21T03:59:34;101112.72;;;10.08;100.00
30636;BME280;17400;52.392;9.750;2023-04-21T04:02:02;101110.63;;;10.10;100.00
30636;BME280;17400;52.392;9.750;2023-04-21T04:04:30;101106.91;;;10.11;100.00
30636;BME280;17400;52.392;9.750;2023-04-21T04:06:58;101100.50;;;10.12;100.00
30636;BME280;17400;52.392;9.750;2023-04-21T04:09:26;101106.09;;;10.11;100.00
30636;BME280;17400;52.392;9.750;2023-04-21T04:11:53;101098.50;;;10.06;100.00
30636;BME280;17400;52.392;9.750;2023-04-21T04:14:21;101104.50;;;10.02;100.00
30636;BME280;17400;52.392;9.750;2023-04-21T04:16:50;101105.69;;;9.99;100.00
30636;BME280;17400;52.392;9.750;2023-04-21T04:19:17;101113.13;;;9.97;100.00
30636;BME280;17400;52.392;9.750;2023-04-21T04:21:46;101105.84;;;9.97;100.00
30636;BME280;17400;52.392;9.750;2023-04-21T04:24:14;101109.22;;;9.99;100.00
30636;BME280;17400;52.392;9.750;2023-04-21T04:26:42;101109.63;;;10.11;100.00
30636;BME280;17400;52.392;9.750;2023-04-21T04:29:10;101112.44;;;10.18;100.00
30636;BME280;17400;52.392;9.750;2023-04-21T04:31:39;101118.03;;;10.16;100.00
30636;BME280;17400;52.392;9.750;2023-04-21T04:34:08;101118.94;;;10.09;100.00
30636;BME280;17400;52.392;9.750;2023-04-21T04:36:36;101114.84;;;10.13;100.00
30636;BME280;17400;52.392;9.750;2023-04-21T04:39:04;101120.25;;;10.13;100.00
30636;BME280;17400;52.392;9.750;2023-04-21T04:41:35;101122.59;;;10.16;100.00
30636;BME280;17400;52.392;9.750;2023-04-21T04:44:03;101115.22;;;10.10;100.00
30636;BME280;17400;52.392;9.750;2023-04-21T04:46:31;101123.69;;;10.07;100.00
30636;BME280;17400;52.392;9.750;2023-04-21T04:48:59;101120.41;;;9.96;100.00
30636;BME280;17400;52.392;9.750;2023-04-21T04:51:28;101124.34;;;9.94;100.00
30636;BME280;17400;52.392;9.750;2023-04-21T04:53:57;101116.13;;;10.02;100.00
30636;BME280;17400;52.392;9.750;2023-04-21T04:56:25;101116.63;;;10.06;100.00
30636;BME280;17400;52.392;9.750;2023-04-21T04:58:53;101125.94;;;10.03;100.00
30636;BME280;17400;52.392;9.750;2023-04-21T05:01:20;101117.25;;;10.08;100.00
30636;BME280;17400;52.392;9.750;2023-04-21T05:03:51;101114.34;;;10.09;100.00
30636;BME280;17400;52.392;9.750;2023-04-21T05:06:19;101118.56;;;10.12;100.00
30636;BME280;17400;52.392;9.750;2023-04-21T05:08:48;101125.66;;;10.13;100.00
30636;BME280;17400;52.392;9.750;2023-04-21T05:11:15;101123.97;;;10.12;100.00
30636;BME280;17400;52.392;9.750;2023-04-21T05:13:43;101115.69;;;10.13;100.00
30636;BME280;17400;52.392;9.750;2023-04-21T05:16:11;101113.34;;;10.10;100.00
30636;BME280;17400;52.392;9.750;2023-04-21T05:18:39;101122.78;;;10.14;100.00
30636;BME280;17400;52.392;9.750;2023-04-21T05:21:06;101123.44;;;10.16;100.00
30636;BME280;17400;52.392;9.750;2023-04-21T05:23:35;101119.72;;;10.17;100.00
30636;BME280;17400;52.392;9.750;2023-04-21T05:26:04;101118.31;;;10.22;100.00
30636;BME280;17400;52.392;9.750;2023-04-21T05:28:31;101114.75;;;10.21;100.00
30636;BME280;17400;52.392;9.750;2023-04-21T05:31:01;101119.16;;;10.22;100.00
30636;BME280;17400;52.392;9.750;2023-04-21T05:33:28;101113.53;;;10.24;100.00
30636;BME280;17400;52.392;9.750;2023-04-21T05:35:57;101109.00;;;10.24;100.00
30636;BME280;17400;52.392;9.750;2023-04-21T05:38:24;101121.31;;;10.27;100.00
30636;BME280;17400;52.392;9.750;2023-04-21T05:40:53;101111.50;;;10.26;100.00
30636;BME280;17400;52.392;9.750;2023-04-21T05:43:22;101115.72;;;10.28;100.00
30636;BME280;17400;52.392;9.750;2023-04-21T05:45:50;101118.91;;;10.32;100.00
30636;BME280;17400;52.392;9.750;2023-04-21T05:48:18;101124.56;;;10.22;100.00
30636;BME280;17400;52.392;9.750;2023-04-21T05:50:46;101115.91;;;10.27;100.00
30636;BME280;17400;52.392;9.750;2023-04-21T05:53:14;101120.94;;;10.30;100.00
30636;BME280;17400;52.392;9.750;2023-04-21T05:55:41;101119.63;;;10.26;100.00
30636;BME280;17400;52.392;9.750;2023-04-21T05:58:09;101118.91;;;10.32;100.00
30636;BME280;17400;52.392;9.750;2023-04-21T06:00:38;101117.81;;;10.41;100.00
30636;BME280;17400;52.392;9.750;2023-04-21T06:03:06;101119.03;;;10.39;100.00
30636;BME280;17400;52.392;9.750;2023-04-21T06:05:34;101113.13;;;10.35;100.00
30636;BME280;17400;52.392;9.750;2023-04-21T06:08:01;101117.22;;;10.31;100.00
30636;BME280;17400;52.392;9.750;2023-04-21T06:10:29;101105.53;;;10.30;100.00
30636;BME280;17400;52.392;9.750;2023-04-21T06:12:57;101103.63;;;10.39;100.00
30636;BME280;17400;52.392;9.750;2023-04-21T06:15:25;101100.25;;;10.37;100.00
30636;BME280;17400;52.392;9.750;2023-04-21T06:17:54;101090.94;;;10.55;100.00
30636;BME280;17400;52.392;9.750;2023-04-21T06:20:21;101094.00;;;10.66;100.00
30636;BME280;17400;52.392;9.750;2023-04-21T06:22:49;101100.31;;;10.74;100.00
30636;BME280;17400;52.392;9.750;2023-04-21T06:25:17;101094.72;;;10.90;100.00
30636;BME280;17400;52.392;9.750;2023-04-21T06:27:45;101088.78;;;11.02;100.00
30636;BME280;17400;52.392;9.750;2023-04-21T06:30:14;101092.94;;;10.82;100.00
30636;BME280;17400;52.392;9.750;2023-04-21T06:32:44;101084.50;;;10.92;100.00
30636;BME280;17400;52.392;9.750;2023-04-21T06:35:15;101080.13;;;10.91;100.00
30636;BME280;17400;52.392;9.750;2023-04-21T06:37:43;101083.94;;;10.97;100.00
30636;BME280;17400;52.392;9.750;2023-04-21T06:40:11;101083.06;;;11.11;100.00
30636;BME280;17400;52.392;9.750;2023-04-21T06:42:41;101077.88;;;11.16;100.00
30636;BME280;17400;52.392;9.750;2023-04-21T06:45:09;101089.25;;;11.27;100.00
30636;BME280;17400;52.392;9.750;2023-04-21T06:47:37;101073.66;;;11.29;100.00
30636;BME280;17400;52.392;9.750;2023-04-21T06:50:06;101083.16;;;11.40;100.00
30636;BME280;17400;52.392;9.750;2023-04-21T06:52:35;101069.25;;;11.49;100.00
30636;BME280;17400;52.392;9.750;2023-04-21T06:55:04;101073.44;;;11.52;100.00
30636;BME280;17400;52.392;9.750;2023-04-21T06:57:31;101073.34;;;11.60;100.00
30636;BME280;17400;52.392;9.750;2023-04-21T06:59:59;101074.03;;;11.69;100.00
30636;BME280;17400;52.392;9.750;2023-04-21T07:02:27;101079.69;;;11.74;100.00
30636;BME280;17400;52.392;9.750;2023-04-21T07:04:55;101082.75;;;11.64;100.00
30636;BME280;17400;52.392;9.750;2023-04-21T07:07:22;101082.25;;;11.82;100.00
30636;BME280;17400;52.392;9.750;2023-04-21T07:09:51;101083.94;;;11.83;100.00
30636;BME280;17400;52.392;9.750;2023-04-21T07:12:19;101073.88;;;11.99;100.00
30636;BME280;17400;52.392;9.750;2023-04-21T07:14:47;101080.44;;;12.11;100.00
30636;BME280;17400;52.392;9.750;2023-04-21T07:17:14;101077.47;;;12.06;100.00
30636;BME280;17400;52.392;9.750;2023-04-21T07:19:42;101081.28;;;12.12;100.00
30636;BME280;17400;52.392;9.750;2023-04-21T07:22:10;101070.88;;;12.22;100.00
30636;BME280;17400;52.392;9.750;2023-04-21T07:24:39;101073.56;;;12.15;100.00
30636;BME280;17400;52.392;9.750;2023-04-21T07:27:07;101077.97;;;12.16;100.00
30636;BME280;17400;52.392;9.750;2023-04-21T07:29:35;101075.03;;;12.18;100.00
30636;BME280;17400;52.392;9.750;2023-04-21T07:32:03;101074.50;;;12.29;100.00
30636;BME280;17400;52.392;9.750;2023-04-21T07:34:31;101078.78;;;12.52;100.00
30636;BME280;17400;52.392;9.750;2023-04-21T07:36:58;101072.16;;;12.61;100.00
30636;BME280;17400;52.392;9.750;2023-04-21T07:39:26;101068.66;;;12.74;100.00
30636;BME280;17400;52.392;9.750;2023-04-21T07:41:54;101063.69;;;12.85;100.00
30636;BME280;17400;52.392;9.750;2023-04-21T07:44:23;101064.34;;;12.93;100.00
30636;BME280;17400;52.392;9.750;2023-04-21T07:46:53;101065.81;;;12.96;100.00
30636;BME280;17400;52.392;9.750;2023-04-21T07:49:21;101060.38;;;13.03;100.00
30636;BME280;17400;52.392;9.750;2023-04-21T07:51:49;101054.91;;;12.89;100.00
30636;BME280;17400;52.392;9.750;2023-04-21T07:54:17;101050.16;;;12.98;100.00
30636;BME280;17400;52.392;9.750;2023-04-21T07:56:46;101043.88;;;13.04;100.00
30636;BME280;17400;52.392;9.750;2023-04-21T07:59:13;101052.91;;;13.11;100.00
30636;BME280;17400;52.392;9.750;2023-04-21T08:01:42;101060.63;;;13.21;100.00
30636;BME280;17400;52.392;9.750;2023-04-21T08:04:10;101048.31;;;13.25;100.00
30636;BME280;17400;52.392;9.750;2023-04-21T08:06:38;101055.44;;;13.33;100.00
30636;BME280;17400;52.392;9.750;2023-04-21T08:09:06;101051.28;;;13.44;100.00
30636;BME280;17400;52.392;9.750;2023-04-21T08:11:34;101052.34;;;13.49;100.00
30636;BME280;17400;52.392;9.750;2023-04-21T08:14:01;101054.66;;;13.46;100.00
30636;BME280;17400;52.392;9.750;2023-04-21T08:16:30;101046.28;;;13.47;100.00
30636;BME280;17400;52.392;9.750;2023-04-21T08:18:59;101046.72;;;13.58;100.00
30636;BME280;17400;52.392;9.750;2023-04-21T08:21:26;101047.97;;;13.62;100.00
30636;BME280;17400;52.392;9.750;2023-04-21T08:23:56;101045.66;;;13.65;100.00
30636;BME280;17400;52.392;9.750;2023-04-21T08:26:24;101045.22;;;13.75;100.00
30636;BME280;17400;52.392;9.750;2023-04-21T08:28:52;101033.50;;;13.81;100.00
30636;BME280;17400;52.392;9.750;2023-04-21T08:31:19;101033.28;;;13.90;100.00
30636;BME280;17400;52.392;9.750;2023-04-21T08:33:47;101027.19;;;13.94;100.00
30636;BME280;17400;52.392;9.750;2023-04-21T08:36:29;101028.25;;;14.00;100.00
30636;BME280;17400;52.392;9.750;2023-04-21T08:38:57;101021.78;;;14.01;100.00
30636;BME280;17400;52.392;9.750;2023-04-21T08:41:25;101025.28;;;14.15;99.93
30636;BME280;17400;52.392;9.750;2023-04-21T08:43:53;101015.00;;;14.30;100.00
30636;BME280;17400;52.392;9.750;2023-04-21T08:46:21;101016.19;;;14.41;98.55
30636;BME280;17400;52.392;9.750;2023-04-21T08:48:49;101016.81;;;14.50;98.65
30636;BME280;17400;52.392;9.750;2023-04-21T08:51:22;101020.53;;;14.56;96.67
30636;BME280;17400;52.392;9.750;2023-04-21T08:53:53;101018.63;;;14.63;96.26
30636;BME280;17400;52.392;9.750;2023-04-21T08:56:22;101019.88;;;14.67;94.67
30636;BME280;17400;52.392;9.750;2023-04-21T08:58:50;101019.88;;;14.74;93.59
30636;BME280;17400;52.392;9.750;2023-04-21T09:01:18;101022.59;;;14.74;91.94
30636;BME280;17400;52.392;9.750;2023-04-21T09:03:46;101014.59;;;14.79;91.34
30636;BME280;17400;52.392;9.750;2023-04-21T09:06:14;101010.16;;;14.85;89.94
30636;BME280;17400;52.392;9.750;2023-04-21T09:08:43;101012.22;;;14.89;88.05
30636;BME280;17400;52.392;9.750;2023-04-21T09:11:20;101013.22;;;14.95;88.78
30636;BME280;17400;52.392;9.750;2023-04-21T09:13:48;101008.78;;;15.07;89.04
30636;BME280;17400;52.392;9.750;2023-04-21T09:16:16;101011.41;;;15.21;86.45
30636;BME280;17400;52.392;9.750;2023-04-21T09:18:46;101004.69;;;15.23;84.66
30636;BME280;17400;52.392;9.750;2023-04-21T09:21:15;100997.06;;;15.32;84.76
30636;BME280;17400;52.392;9.750;2023-04-21T09:23:45;101008.75;;;15.39;84.29
30636;BME280;17400;52.392;9.750;2023-04-21T09:26:13;101008.28;;;15.42;80.21
30636;BME280;17400;52.392;9.750;2023-04-21T09:28:44;100997.31;;;15.49;77.62
30636;BME280;17400;52.392;9.750;2023-04-21T09:31:14;101002.13;;;15.54;76.81
30636;BME280;17400;52.392;9.750;2023-04-21T09:33:47;100993.19;;;15.65;77.18
30636;BME280;17400;52.392;9.750;2023-04-21T09:36:18;100999.22;;;15.74;72.94
30636;BME280;17400;52.392;9.750;2023-04-21T09:38:49;100995.19;;;15.76;71.20
30636;BME280;17400;52.392;9.750;2023-04-21T09:41:37;100995.41;;;15.81;70.60
30636;BME280;17400;52.392;9.750;2023-04-21T09:44:06;100983.78;;;15.86;67.89
30636;BME280;17400;52.392;9.750;2023-04-21T09:46:35;100982.06;;;15.92;68.21
30636;BME280;17400;52.392;9.750;2023-04-21T09:49:03;100979.44;;;16.04;68.93
30636;BME280;17400;52.392;9.750;2023-04-21T09:51:31;100975.75;;;16.10;67.28
30636;BME280;17400;52.392;9.750;2023-04-21T09:54:07;100974.94;;;16.09;66.54
30636;BME280;17400;52.392;9.750;2023-04-21T09:56:57;100975.31;;;16.13;67.02
30636;BME280;17400;52.392;9.750;2023-04-21T09:59:29;100971.66;;;16.19;64.80
30636;BME280;17400;52.392;9.750;2023-04-21T10:01:58;100982.31;;;16.27;63.40
30636;BME280;17400;52.392;9.750;2023-04-21T10:04:27;100961.44;;;16.33;60.52
30636;BME280;17400;52.392;9.750;2023-04-21T10:06:58;100957.78;;;16.39;59.50
30636;BME280;17400;52.392;9.750;2023-04-21T10:09:32;100962.53;;;16.44;57.03
30636;BME280;17400;52.392;9.750;2023-04-21T10:12:02;100967.25;;;16.55;55.42
30636;BME280;17400;52.392;9.750;2023-04-21T10:14:35;100967.59;;;16.59;55.77
30636;BME280;17400;52.392;9.750;2023-04-21T10:17:04;100958.94;;;16.62;56.58
30636;BME280;17400;52.392;9.750;2023-04-21T10:19:34;100955.84;;;16.58;55.71
30636;BME280;17400;52.392;9.750;2023-04-21T10:22:06;100960.75;;;16.68;56.63
30636;BME280;17400;52.392;9.750;2023-04-21T10:24:36;100953.97;;;16.71;56.01
30636;BME280;17400;52.392;9.750;2023-04-21T10:27:09;100951.75;;;16.79;54.41
30636;BME280;17400;52.392;9.750;2023-04-21T10:29:40;100947.50;;;16.83;54.74
30636;BME280;17400;52.392;9.750;2023-04-21T10:32:38;100936.84;;;16.94;51.90
30636;BME280;17400;52.392;9.750;2023-04-21T10:35:08;100939.34;;;16.95;52.77
30636;BME280;17400;52.392;9.750;2023-04-21T10:37:39;100938.41;;;17.02;53.57
30636;BME280;17400;52.392;9.750;2023-04-21T10:40:33;100940.31;;;17.01;53.79
30636;BME280;17400;52.392;9.750;2023-04-21T10:43:43;100930.09;;;17.08;53.34
30636;BME280;17400;52.392;9.750;2023-04-21T10:46:33;100923.09;;;17.12;53.04
30636;BME280;17400;52.392;9.750;2023-04-21T10:49:05;100920.84;;;17.21;52.29
30636;BME280;17400;52.392;9.750;2023-04-21T10:52:01;100907.63;;;17.30;50.97
30636;BME280;17400;52.392;9.750;2023-04-21T10:54:35;100897.06;;;17.34;48.70
30636;BME280;17400;52.392;9.750;2023-04-21T10:57:05;100902.28;;;17.35;47.58
30636;BME280;17400;52.392;9.750;2023-04-21T10:59:34;100911.00;;;17.44;46.97
30636;BME280;17400;52.392;9.750;2023-04-21T11:02:03;100910.88;;;17.51;45.21
30636;BME280;17400;52.392;9.750;2023-04-21T11:04:32;100896.13;;;17.52;44.11
30636;BME280;17400;52.392;9.750;2023-04-21T11:07:05;100903.34;;;17.58;43.60
30636;BME280;17400;52.392;9.750;2023-04-21T11:09:38;100893.59;;;17.62;44.43
30636;BME280;17400;52.392;9.750;2023-04-21T11:12:09;100901.47;;;17.70;42.74
30636;BME280;17400;52.392;9.750;2023-04-21T11:14:39;100883.72;;;17.73;42.48
30636;BME280;17400;52.392;9.750;2023-04-21T11:17:11;100877.84;;;17.81;42.06
30636;BME280;17400;52.392;9.750;2023-04-21T11:19:40;100881.53;;;17.87;41.32
30636;BME280;17400;52.392;9.750;2023-04-21T11:22:08;100875.13;;;17.93;40.22
30636;BME280;17400;52.392;9.750;2023-04-21T11:24:36;100885.59;;;17.96;40.20
30636;BME280;17400;52.392;9.750;2023-04-21T11:27:06;100861.63;;;18.03;39.31
30636;BME280;17400;52.392;9.750;2023-04-21T11:29:34;100864.47;;;18.08;39.43
30636;BME280;17400;52.392;9.750;2023-04-21T11:32:04;100864.00;;;18.11;38.81
30636;BME280;17400;52.392;9.750;2023-04-21T11:34:35;100867.16;;;18.20;39.46
30636;BME280;17400;52.392;9.750;2023-04-21T11:37:03;100852.59;;;18.31;39.13
30636;BME280;17400;52.392;9.750;2023-04-21T11:39:32;100845.63;;;18.41;38.34
30636;BME280;17400;52.392;9.750;2023-04-21T11:42:00;100845.31;;;18.54;38.61
30636;BME280;17400;52.392;9.750;2023-04-21T11:44:32;100847.31;;;18.59;39.72
30636;BME280;17400;52.392;9.750;2023-04-21T11:47:11;100837.63;;;18.68;39.08
30636;BME280;17400;52.392;9.750;2023-04-21T11:49:45;100829.88;;;18.82;39.21
30636;BME280;17400;52.392;9.750;2023-04-21T11:52:23;100828.75;;;18.95;38.49
30636;BME280;17400;52.392;9.750;2023-04-21T11:54:56;100822.91;;;18.91;37.91
30636;BME280;17400;52.392;9.750;2023-04-21T11:57:26;100825.41;;;18.93;38.10
30636;BME280;17400;52.392;9.750;2023-04-21T11:59:57;100834.75;;;18.92;38.49
30636;BME280;17400;52.392;9.750;2023-04-21T12:02:25;100835.81;;;18.91;38.19
30636;BME280;17400;52.392;9.750;2023-04-21T12:05:00;100825.06;;;19.06;38.24
30636;BME280;17400;52.392;9.750;2023-04-21T12:07:30;100837.78;;;19.12;38.26
30636;BME280;17400;52.392;9.750;2023-04-21T12:09:59;100828.84;;;19.22;37.80
30636;BME280;17400;52.392;9.750;2023-04-21T12:12:28;100824.69;;;19.37;38.10
30636;BME280;17400;52.392;9.750;2023-04-21T12:14:55;100817.47;;;19.53;37.98
30636;BME280;17400;52.392;9.750;2023-04-21T12:17:23;100809.97;;;19.65;37.45
30636;BME280;17400;52.392;9.750;2023-04-21T12:19:51;100832.00;;;19.70;37.67
30636;BME280;17400;52.392;9.750;2023-04-21T12:22:20;100821.28;;;19.69;36.89
30636;BME280;17400;52.392;9.750;2023-04-21T12:24:49;100813.22;;;19.84;36.83
30636;BME280;17400;52.392;9.750;2023-04-21T12:27:17;100809.41;;;19.85;37.50
30636;BME280;17400;52.392;9.750;2023-04-21T12:29:44;100813.69;;;19.98;37.93
30636;BME280;17400;52.392;9.750;2023-04-21T12:32:14;100807.78;;;20.11;37.18
30636;BME280;17400;52.392;9.750;2023-04-21T12:34:41;100801.13;;;20.07;36.50
30636;BME280;17400;52.392;9.750;2023-04-21T12:37:09;100792.63;;;20.09;37.04
30636;BME280;17400;52.392;9.750;2023-04-21T12:39:38;100795.13;;;20.10;36.69
30636;BME280;17400;52.392;9.750;2023-04-21T12:42:06;100797.03;;;20.10;36.79
30636;BME280;17400;52.392;9.750;2023-04-21T12:44:34;100792.38;;;20.10;36.79
30636;BME280;17400;52.392;9.750;2023-04-21T12:47:02;100789.34;;;20.12;36.66
30636;BME280;17400;52.392;9.750;2023-04-21T12:49:29;100778.19;;;20.24;37.32
30636;BME280;17400;52.392;9.750;2023-04-21T12:51:58;100782.13;;;20.33;37.14
30636;BME280;17400;52.392;9.750;2023-04-21T12:54:25;100754.72;;;20.43;36.69